createdAt,value
2023-04-12T00:00:46.805Z,23.45
2023-04-12T00:02:48.580Z,22.83
2023-04-12T00:04:50.350Z,21.30
2023-04-12T00:06:52.106Z,19.25
2023-04-12T00:08:53.667Z,19.02
2023-04-12T00:10:55.045Z,20.70
2023-04-12T00:12:56.644Z,21.13
2023-04-12T00:14:58.203Z,24.08
2023-04-12T00:16:59.666Z,25.45
2023-04-12T00:19:01.265Z,23.77
2023-04-12T00:21:02.807Z,21.23
2023-04-12T00:23:04.285Z,21.52
2023-04-12T00:25:06.541Z,23.27
2023-04-12T00:27:08.432Z,23.30
2023-04-12T00:29:10.205Z,26.77
2023-04-12T00:31:11.882Z,24.05
2023-04-12T00:33:13.438Z,23.45
2023-04-12T00:35:14.879Z,23.73
2023-04-12T00:37:16.523Z,27.50
2023-04-12T00:39:17.982Z,29.05
2023-04-12T00:41:19.422Z,27.65
2023-04-12T00:43:20.930Z,27.25
2023-04-12T00:45:22.424Z,27.23
2023-04-12T00:47:23.949Z,27.77
2023-04-12T00:49:28.285Z,30.45
2023-04-12T00:51:32.016Z,28.45
2023-04-12T00:55:35.627Z,28.17
2023-04-12T00:57:39.500Z,27.63
2023-04-12T00:59:40.986Z,26.38
2023-04-12T01:01:43.035Z,29.25
2023-04-12T01:03:45.133Z,29.13
2023-04-12T01:05:56.800Z,25.98
2023-04-12T01:08:10.582Z,25.25
2023-04-12T01:10:15.253Z,26.02
2023-04-12T01:12:55.358Z,25.83
2023-04-12T01:14:59.665Z,28.10
2023-04-12T01:17:06.570Z,30.35
2023-04-12T01:19:33.828Z,26.45
2023-04-12T01:21:45.351Z,25.92
2023-04-12T01:24:08.176Z,26.42
2023-04-12T01:26:41.775Z,27.40
2023-04-12T01:28:45.613Z,27.27
2023-04-12T01:30:50.245Z,27.45
2023-04-12T01:32:54.837Z,27.13
2023-04-12T01:34:58.747Z,27.88
2023-04-12T01:37:02.883Z,30.10
2023-04-12T01:39:05.065Z,31.52
2023-04-12T01:41:08.411Z,26.40
2023-04-12T01:43:12.341Z,29.45
2023-04-12T01:45:13.767Z,31.35
2023-04-12T01:47:15.662Z,27.83
2023-04-12T01:49:18.123Z,29.38
2023-04-12T01:51:31.309Z,32.08
2023-04-12T01:54:03.920Z,30.63
2023-04-12T01:56:09.501Z,28.33
2023-04-12T01:58:11.959Z,28.23
2023-04-12T02:00:15.695Z,31.83
2023-04-12T02:02:17.868Z,26.40
2023-04-12T02:04:20.353Z,29.38
2023-04-12T02:06:23.061Z,29.40
2023-04-12T02:08:25.459Z,28.63
2023-04-12T02:10:34.035Z,27.08
2023-04-12T02:12:35.541Z,30.70
2023-04-12T02:14:37.140Z,27.02
2023-04-12T02:16:38.566Z,28.00
2023-04-12T02:18:40.192Z,26.33
2023-04-12T02:20:41.869Z,29.33
2023-04-12T02:22:43.272Z,27.88
2023-04-12T02:24:44.949Z,26.05
2023-04-12T02:26:46.369Z,30.55
2023-04-12T02:28:47.780Z,31.65
2023-04-12T02:30:49.318Z,29.35
2023-04-12T02:32:50.877Z,29.15
2023-04-12T02:34:52.355Z,26.08
2023-04-12T02:36:53.801Z,29.55
2023-04-12T02:38:55.852Z,28.35
2023-04-12T02:40:57.373Z,27.65
2023-04-12T02:42:58.859Z,29.42
2023-04-12T02:45:00.303Z,28.17
2023-04-12T02:47:01.695Z,30.08
2023-04-12T02:49:03.295Z,30.30
2023-04-12T02:51:04.869Z,31.33
2023-04-12T02:53:06.270Z,28.02
2023-04-12T02:55:08.502Z,28.73
2023-04-12T02:57:09.925Z,27.65
2023-04-12T02:59:11.323Z,30.35
2023-04-12T03:01:13.075Z,27.30
2023-04-12T03:03:14.806Z,27.60
2023-04-12T03:05:16.322Z,28.38
2023-04-12T03:07:21.625Z,26.52
2023-04-12T03:09:23.148Z,28.90
2023-04-12T03:11:24.540Z,27.38
2023-04-12T03:13:25.977Z,28.13
2023-04-12T03:15:27.381Z,27.10
2023-04-12T03:17:28.813Z,30.80
2023-04-12T03:19:30.318Z,27.85
2023-04-12T03:21:32.369Z,27.58
2023-04-12T03:23:33.762Z,28.20
2023-04-12T03:25:35.503Z,29.05
2023-04-12T03:27:37.033Z,29.02
2023-04-12T03:29:38.433Z,29.02
2023-04-12T03:31:39.923Z,26.60
2023-04-12T03:33:41.579Z,27.90
2023-04-12T03:35:43.611Z,29.27
2023-04-12T03:37:45.220Z,27.40
2023-04-12T03:39:46.795Z,27.55
2023-04-12T03:41:48.330Z,29.38
2023-04-12T03:43:49.873Z,31.48
2023-04-12T03:45:51.590Z,29.75
2023-04-12T03:47:53.067Z,30.95
2023-04-12T03:52:07.942Z,31.15
2023-04-12T03:54:13.148Z,31.17
2023-04-12T03:56:14.546Z,26.38
2023-04-12T03:58:16.022Z,28.65
2023-04-12T04:00:17.522Z,29.23
2023-04-12T04:02:19.560Z,29.92
2023-04-12T04:04:21.242Z,29.80
2023-04-12T04:06:23.100Z,29.15
2023-04-12T04:08:24.602Z,29.13
2023-04-12T04:10:27.455Z,26.08
2023-04-12T04:12:28.864Z,30.60
2023-04-12T04:14:30.512Z,25.38
2023-04-12T04:16:31.944Z,24.25
2023-04-12T04:18:33.356Z,26.70
2023-04-12T04:20:34.902Z,27.38
2023-04-12T04:22:36.605Z,26.45
2023-04-12T04:24:38.006Z,26.00
2023-04-12T04:26:39.633Z,26.65
2023-04-12T04:28:42.660Z,23.58
2023-04-12T04:30:44.170Z,22.70
2023-04-12T04:32:46.253Z,23.55
2023-04-12T04:34:47.916Z,24.83
2023-04-12T04:36:49.365Z,25.65
2023-04-12T04:38:51.025Z,28.38
2023-04-12T04:40:52.515Z,26.48
2023-04-12T04:42:53.906Z,26.35
2023-04-12T04:44:55.846Z,22.77
2023-04-12T04:46:57.417Z,20.85
2023-04-12T04:49:00.029Z,20.75
2023-04-12T04:51:01.599Z,22.08
2023-04-12T04:53:03.175Z,20.42
2023-04-12T04:55:07.368Z,20.90
2023-04-12T04:57:10.223Z,19.63
2023-04-12T04:59:11.906Z,21.80
2023-04-12T05:01:13.478Z,20.48
2023-04-12T05:03:15.445Z,22.25
2023-04-12T05:05:17.570Z,20.95
2023-04-12T05:07:18.972Z,19.80
2023-04-12T05:09:20.745Z,21.48
2023-04-12T05:11:22.347Z,21.70
2023-04-12T05:13:24.193Z,23.10
2023-04-12T05:15:25.709Z,23.05
2023-04-12T05:17:27.447Z,28.52
2023-04-12T05:19:28.945Z,233.10
2023-04-12T05:21:30.536Z,88.30
2023-04-12T05:23:41.869Z,134.52
2023-04-12T05:25:47.484Z,308.88
2023-04-12T05:27:51.382Z,46.00
2023-04-12T05:29:54.076Z,39.70
2023-04-12T05:31:55.510Z,25.05
2023-04-12T05:33:57.069Z,18.02
2023-04-12T05:35:58.634Z,19.33
2023-04-12T05:38:00.193Z,17.75
2023-04-12T05:40:01.768Z,17.10
2023-04-12T05:42:03.452Z,18.85
2023-04-12T05:44:04.842Z,19.60
2023-04-12T05:46:06.631Z,34.45
2023-04-12T05:48:08.612Z,25.88
2023-04-12T05:50:10.576Z,19.05
2023-04-12T05:52:12.108Z,20.17
2023-04-12T05:54:13.703Z,18.40
2023-04-12T05:56:15.117Z,17.20
2023-04-12T05:58:16.593Z,19.67
2023-04-12T06:00:18.256Z,19.80
2023-04-12T06:02:19.822Z,17.90
2023-04-12T06:04:21.731Z,18.63
2023-04-12T06:06:23.611Z,20.50
2023-04-12T06:08:25.065Z,20.42
2023-04-12T06:10:26.565Z,20.30
2023-04-12T06:12:28.186Z,18.98
2023-04-12T06:14:29.598Z,17.60
2023-04-12T06:16:31.252Z,20.90
2023-04-12T06:18:32.957Z,18.58
2023-04-12T06:20:34.482Z,29.88
2023-04-12T06:22:36.706Z,15.93
2023-04-12T06:24:38.140Z,19.65
2023-04-12T06:26:40.323Z,14.95
2023-04-12T06:28:42.038Z,20.55
2023-04-12T06:30:43.476Z,16.23
2023-04-12T06:32:44.903Z,15.65
2023-04-12T06:34:46.515Z,14.88
2023-04-12T06:36:47.926Z,13.48
2023-04-12T06:38:49.314Z,13.93
2023-04-12T06:40:50.869Z,13.95
2023-04-12T06:42:52.416Z,15.55
2023-04-12T06:44:53.816Z,14.60
2023-04-12T06:46:55.292Z,14.65
2023-04-12T06:48:56.926Z,20.98
2023-04-12T06:50:58.465Z,24.65
2023-04-12T06:52:59.875Z,20.67
2023-04-12T06:55:01.354Z,17.08
2023-04-12T06:57:02.794Z,13.70
2023-04-12T06:59:04.222Z,15.30
2023-04-12T07:01:06.832Z,14.13
2023-04-12T07:03:09.269Z,18.52
2023-04-12T07:05:10.906Z,18.40
2023-04-12T07:07:12.376Z,16.98
2023-04-12T07:09:13.800Z,17.48
2023-04-12T07:11:21.502Z,21.20
2023-04-12T07:13:23.952Z,19.15
2023-04-12T07:15:25.392Z,16.85
2023-04-12T07:17:26.924Z,16.52
2023-04-12T07:19:28.534Z,17.02
2023-04-12T07:21:29.963Z,13.18
2023-04-12T07:23:31.383Z,14.13
2023-04-12T07:25:32.924Z,11.98
2023-04-12T07:27:34.307Z,11.10
2023-04-12T07:29:35.704Z,12.25
2023-04-12T07:31:37.099Z,16.13
2023-04-12T07:33:41.429Z,13.10
2023-04-12T07:35:44.322Z,15.70
2023-04-12T07:37:45.821Z,14.18
2023-04-12T07:39:47.259Z,13.07
2023-04-12T07:41:49.879Z,12.65
2023-04-12T07:43:51.303Z,13.07
2023-04-12T07:45:55.069Z,13.55
2023-04-12T07:47:56.538Z,11.65
2023-04-12T07:49:58.333Z,12.00
2023-04-12T07:51:59.723Z,11.02
2023-04-12T07:54:01.157Z,15.13
2023-04-12T07:56:02.645Z,10.82
2023-04-12T07:58:04.018Z,9.60
2023-04-12T08:00:08.265Z,7.72
2023-04-12T08:02:09.767Z,8.63
2023-04-12T08:04:11.328Z,10.90
2023-04-12T08:06:13.024Z,11.25
2023-04-12T08:08:14.460Z,9.45
2023-04-12T08:10:15.902Z,12.05
2023-04-12T08:12:17.306Z,13.65
2023-04-12T08:14:18.909Z,18.38
2023-04-12T08:16:20.437Z,12.75
2023-04-12T08:18:22.134Z,12.73
2023-04-12T08:20:23.753Z,12.75
2023-04-12T08:22:25.241Z,12.95
2023-04-12T08:24:26.744Z,19.25
2023-04-12T08:26:28.239Z,8.77
2023-04-12T08:28:30.567Z,11.07
2023-04-12T08:30:32.077Z,9.75
2023-04-12T08:32:34.408Z,7.13
2023-04-12T08:34:37.581Z,7.97
2023-04-12T08:36:39.020Z,7.72
2023-04-12T08:38:45.588Z,11.18
2023-04-12T08:40:47.854Z,7.18
2023-04-12T08:42:51.817Z,8.98
2023-04-12T08:44:53.370Z,8.90
2023-04-12T08:46:54.867Z,9.70
2023-04-12T08:48:56.363Z,10.82
2023-04-12T08:50:57.821Z,12.98
2023-04-12T08:52:59.711Z,11.40
2023-04-12T08:55:05.691Z,13.00
2023-04-12T08:57:08.881Z,11.98
2023-04-12T08:59:10.580Z,11.38
2023-04-12T09:01:13.106Z,11.68
2023-04-12T09:03:14.678Z,13.00
2023-04-12T09:05:16.348Z,11.98
2023-04-12T09:07:18.100Z,12.43
2023-04-12T09:09:19.520Z,13.02
2023-04-12T09:11:22.145Z,12.15
2023-04-12T09:13:36.099Z,12.68
2023-04-12T09:15:49.102Z,12.95
2023-04-12T09:18:04.085Z,12.55
2023-04-12T09:20:26.099Z,14.15
2023-04-12T09:22:35.239Z,11.93
2023-04-12T09:24:46.887Z,14.50
2023-04-12T09:26:48.664Z,11.57
2023-04-12T09:28:50.355Z,12.77
2023-04-12T09:30:55.799Z,13.93
2023-04-12T09:33:10.837Z,14.63
2023-04-12T09:35:12.590Z,13.73
2023-04-12T09:37:16.385Z,13.10
2023-04-12T09:39:17.807Z,13.73
2023-04-12T09:41:25.047Z,11.15
2023-04-12T09:43:38.301Z,15.00
2023-04-12T09:45:39.794Z,12.10
2023-04-12T09:47:41.487Z,11.25
2023-04-12T09:49:44.795Z,11.25
2023-04-12T09:51:51.716Z,11.00
2023-04-12T09:53:53.709Z,11.68
2023-04-12T09:55:57.911Z,10.00
2023-04-12T09:58:03.255Z,12.10
2023-04-12T10:00:07.368Z,11.65
2023-04-12T10:02:16.415Z,15.60
2023-04-12T10:04:19.669Z,10.23
2023-04-12T10:06:21.577Z,11.00
2023-04-12T10:08:23.509Z,10.88
2023-04-12T10:10:25.218Z,10.35
2023-04-12T10:12:27.044Z,9.93
2023-04-12T10:14:29.417Z,12.07
2023-04-12T10:16:33.336Z,9.68
2023-04-12T10:18:36.170Z,8.80
2023-04-12T10:20:40.627Z,11.83
2023-04-12T10:22:50.990Z,8.73
2023-04-12T10:24:52.658Z,10.15
2023-04-12T10:26:55.505Z,8.98
2023-04-12T10:29:22.928Z,11.13
2023-04-12T10:31:28.488Z,15.05
2023-04-12T10:33:30.638Z,11.77
2023-04-12T10:35:52.630Z,8.50
2023-04-12T10:38:01.761Z,10.25
2023-04-12T10:40:03.503Z,10.63
2023-04-12T10:42:25.044Z,28.20
2023-04-12T10:44:26.909Z,29.88
2023-04-12T10:46:40.344Z,23.50
2023-04-12T10:48:52.218Z,15.57
2023-04-12T10:51:11.829Z,12.13
2023-04-12T10:53:13.254Z,6.47
2023-04-12T10:55:30.533Z,7.75
2023-04-12T10:57:43.978Z,6.80
2023-04-12T10:59:53.537Z,5.90
2023-04-12T11:02:07.508Z,6.45
2023-04-12T11:04:20.536Z,6.10
2023-04-12T11:06:43.490Z,5.78
2023-04-12T11:08:46.748Z,7.50
2023-04-12T11:10:48.325Z,6.60
2023-04-12T11:12:52.999Z,8.50
2023-04-12T11:15:00.269Z,6.75
2023-04-12T11:17:13.759Z,5.20
2023-04-12T11:19:16.907Z,5.72
2023-04-12T11:21:19.327Z,6.38
2023-04-12T11:23:21.355Z,6.30
2023-04-12T11:25:23.037Z,5.60
2023-04-12T11:27:25.993Z,6.22
2023-04-12T11:29:27.551Z,9.60
2023-04-12T11:31:29.022Z,7.20
2023-04-12T11:33:34.619Z,7.47
2023-04-12T11:35:36.038Z,6.63
2023-04-12T11:37:38.537Z,6.65
2023-04-12T11:39:44.490Z,5.75
2023-04-12T11:41:46.649Z,6.55
2023-04-12T11:43:48.480Z,8.45
2023-04-12T11:45:56.212Z,6.13
2023-04-12T11:47:57.874Z,8.95
2023-04-12T11:49:59.406Z,8.73
2023-04-12T11:52:02.861Z,6.28
2023-04-12T11:54:04.475Z,6.15
2023-04-12T11:56:06.373Z,6.88
2023-04-12T11:58:07.858Z,6.13
2023-04-12T12:00:09.718Z,5.22
2023-04-12T12:02:22.757Z,5.40
2023-04-12T12:04:26.420Z,6.63
2023-04-12T12:06:28.492Z,7.35
2023-04-12T12:08:30.222Z,7.97
2023-04-12T12:10:42.085Z,8.60
2023-04-12T12:12:57.615Z,6.80
2023-04-12T12:14:59.885Z,6.00
2023-04-12T12:17:01.839Z,6.43
2023-04-12T12:19:06.354Z,5.90
2023-04-12T12:21:14.842Z,5.35
2023-04-12T12:23:29.866Z,5.80
2023-04-12T12:25:31.631Z,5.43
2023-04-12T12:27:40.349Z,7.53
2023-04-12T12:29:41.935Z,6.97
2023-04-12T12:31:47.220Z,6.22
2023-04-12T12:33:49.176Z,5.45
2023-04-12T12:35:57.641Z,7.47
2023-04-12T12:37:59.318Z,6.18
2023-04-12T12:40:09.531Z,7.53
2023-04-12T12:42:12.295Z,7.57
2023-04-12T12:44:13.761Z,7.10
2023-04-12T12:46:16.181Z,5.70
2023-04-12T12:48:17.764Z,6.47
2023-04-12T12:50:24.784Z,6.00
2023-04-12T12:52:26.521Z,7.53
2023-04-12T12:54:40.283Z,6.95
2023-04-12T12:56:43.220Z,5.47
2023-04-12T12:58:44.722Z,5.65
2023-04-12T13:00:46.114Z,6.40
2023-04-12T13:02:49.459Z,6.22
2023-04-12T13:04:51.136Z,5.82
2023-04-12T13:06:52.649Z,6.47
2023-04-12T13:08:54.541Z,6.60
2023-04-12T13:10:55.935Z,6.85
2023-04-12T13:12:57.451Z,7.10
2023-04-12T13:15:13.509Z,5.63
2023-04-12T13:17:19.799Z,6.65
2023-04-12T13:19:21.184Z,10.52
2023-04-12T13:21:22.652Z,8.20
2023-04-12T13:23:24.061Z,6.85
2023-04-12T13:25:25.656Z,50.88
2023-04-12T13:27:27.139Z,10.50
2023-04-12T13:29:28.977Z,9.15
2023-04-12T13:31:30.467Z,7.78
2023-04-12T13:33:32.093Z,6.32
2023-04-12T13:35:33.517Z,7.07
2023-04-12T13:37:34.908Z,7.00
2023-04-12T13:39:36.502Z,5.45
2023-04-12T13:41:37.942Z,8.98
2023-04-12T13:43:41.163Z,9.05
2023-04-12T13:45:42.771Z,7.13
2023-04-12T13:47:44.255Z,8.05
2023-04-12T13:49:45.923Z,6.55
2023-04-12T13:51:47.985Z,8.52
2023-04-12T13:53:49.389Z,10.15
2023-04-12T13:55:50.848Z,11.85
2023-04-12T13:57:52.345Z,10.05
2023-04-12T13:59:53.788Z,6.88
2023-04-12T14:01:55.692Z,10.35
2023-04-12T14:03:57.597Z,8.27
2023-04-12T14:05:58.991Z,10.07
2023-04-12T14:08:00.601Z,7.97
2023-04-12T14:10:02.225Z,8.43
2023-04-12T14:12:03.699Z,9.48
2023-04-12T14:14:05.181Z,8.10
2023-04-12T14:16:07.146Z,7.88
2023-04-12T14:18:08.630Z,7.40
2023-04-12T14:20:10.509Z,7.95
2023-04-12T14:22:12.118Z,7.28
2023-04-12T14:24:13.679Z,8.35
2023-04-12T14:26:15.301Z,8.27
2023-04-12T14:28:17.114Z,11.45
2023-04-12T14:30:19.076Z,9.90
2023-04-12T14:32:20.875Z,10.38
2023-04-12T14:34:22.371Z,12.38
2023-04-12T14:36:23.798Z,8.43
2023-04-12T14:38:25.299Z,7.97
2023-04-12T14:40:26.844Z,10.35
2023-04-12T14:42:28.276Z,8.95
2023-04-12T14:44:29.830Z,11.48
2023-04-12T14:46:31.840Z,9.38
2023-04-12T14:48:33.344Z,12.63
2023-04-12T14:50:34.904Z,10.93
2023-04-12T14:52:36.375Z,9.32
2023-04-12T14:54:37.806Z,9.68
2023-04-12T14:56:46.729Z,9.38
2023-04-12T14:58:52.159Z,8.90
2023-04-12T15:00:53.591Z,9.45
2023-04-12T15:02:55.658Z,8.98
2023-04-12T15:04:57.370Z,10.00
2023-04-12T15:06:58.841Z,8.48
2023-04-12T15:09:01.867Z,11.80
2023-04-12T15:11:04.419Z,15.63
2023-04-12T15:13:05.794Z,9.48
2023-04-12T15:15:07.652Z,9.48
2023-04-12T15:17:09.276Z,320.50
2023-04-12T15:19:17.526Z,455.90
2023-04-12T15:21:21.005Z,98.32
2023-04-12T15:23:22.553Z,20.08
2023-04-12T15:25:24.060Z,12.55
2023-04-12T15:27:25.928Z,7.00
2023-04-12T15:29:27.440Z,101.20
2023-04-12T15:31:28.883Z,84.05
2023-04-12T15:33:30.416Z,290.45
2023-04-12T15:35:31.907Z,197.88
2023-04-12T15:37:34.256Z,328.05
2023-04-12T15:39:35.784Z,484.05
2023-04-12T15:41:39.091Z,200.57
2023-04-12T15:43:40.527Z,63.67
2023-04-12T15:45:42.011Z,183.85
2023-04-12T15:47:44.981Z,15.18
2023-04-12T15:49:46.404Z,14.73
2023-04-12T15:51:47.896Z,12.32
2023-04-12T15:53:49.845Z,11.35
2023-04-12T15:55:51.338Z,12.48
2023-04-12T15:57:52.929Z,9.25
2023-04-12T15:59:54.407Z,10.38
2023-04-12T16:01:55.963Z,20.30
2023-04-12T16:03:57.791Z,9.43
2023-04-12T16:05:59.530Z,9.30
2023-04-12T16:08:01.015Z,12.50
2023-04-12T16:10:02.606Z,8.93
2023-04-12T16:12:04.236Z,13.88
2023-04-12T16:14:05.655Z,12.38
2023-04-12T16:16:07.297Z,10.35
2023-04-12T16:18:08.931Z,9.95
2023-04-12T16:20:11.296Z,11.15
2023-04-12T16:22:12.823Z,10.32
2023-04-12T16:24:14.344Z,10.80
2023-04-12T16:26:20.776Z,11.23
2023-04-12T16:28:22.346Z,8.95
2023-04-12T16:30:23.927Z,19.77
2023-04-12T16:32:25.391Z,13.88
2023-04-12T16:34:26.939Z,11.35
2023-04-12T16:36:28.588Z,14.13
2023-04-12T16:38:30.358Z,12.40
2023-04-12T16:40:31.900Z,10.05
2023-04-12T16:42:33.371Z,10.25
2023-04-12T16:44:34.789Z,17.25
2023-04-12T16:46:36.352Z,9.55
2023-04-12T16:48:37.861Z,25.08
2023-04-12T16:50:39.303Z,14.02
2023-04-12T16:52:41.057Z,17.60
2023-04-12T16:54:43.905Z,21.45
2023-04-12T16:56:45.346Z,33.40
2023-04-12T16:58:46.921Z,176.82
2023-04-12T17:00:48.548Z,141.48
2023-04-12T17:02:51.873Z,25.90
2023-04-12T17:04:53.646Z,108.82
2023-04-12T17:06:55.226Z,31.55
2023-04-12T17:08:56.881Z,84.53
2023-04-12T17:10:58.488Z,43.03
2023-04-12T17:13:00.098Z,59.45
2023-04-12T17:15:01.535Z,45.33
2023-04-12T17:17:04.415Z,24.35
2023-04-12T17:19:09.940Z,12.85
2023-04-12T17:21:14.035Z,12.70
2023-04-12T17:23:16.083Z,39.28
2023-04-12T17:25:19.030Z,25.27
2023-04-12T17:27:23.815Z,32.30
2023-04-12T17:29:25.424Z,30.98
2023-04-12T17:31:27.142Z,33.20
2023-04-12T17:33:28.617Z,23.63
2023-04-12T17:35:30.139Z,46.55
2023-04-12T17:37:31.525Z,47.30
2023-04-12T17:39:32.920Z,51.67
2023-04-12T17:41:34.527Z,51.08
2023-04-12T17:43:35.992Z,40.00
2023-04-12T17:45:37.613Z,34.40
2023-04-12T17:47:40.083Z,51.60
2023-04-12T17:49:44.472Z,31.38
2023-04-12T17:51:45.879Z,31.17
2023-04-12T17:53:47.403Z,31.30
2023-04-12T17:55:50.614Z,49.67
2023-04-12T17:57:52.721Z,91.63
2023-04-12T17:59:54.205Z,50.75
2023-04-12T18:01:56.053Z,51.20
2023-04-12T18:03:57.637Z,59.97
2023-04-12T18:05:59.217Z,66.30
2023-04-12T18:08:00.696Z,44.50
2023-04-12T18:10:02.268Z,55.67
2023-04-12T18:12:04.943Z,74.20
2023-04-12T18:14:06.510Z,56.92
2023-04-12T18:16:07.969Z,59.38
2023-04-12T18:18:09.706Z,43.08
2023-04-12T18:20:11.552Z,30.75
2023-04-12T18:22:12.973Z,38.72
2023-04-12T18:24:17.510Z,41.25
2023-04-12T18:26:19.102Z,27.00
2023-04-12T18:28:20.525Z,41.17
2023-04-12T18:30:22.227Z,38.78
2023-04-12T18:32:23.720Z,40.20
2023-04-12T18:34:25.289Z,31.20
2023-04-12T18:36:26.997Z,28.33
2023-04-12T18:38:28.483Z,30.17
2023-04-12T18:40:29.906Z,60.58
2023-04-12T18:42:31.460Z,102.93
2023-04-12T18:44:33.056Z,69.82
2023-04-12T18:46:35.640Z,61.17
2023-04-12T18:48:37.172Z,88.28
2023-04-12T18:50:38.719Z,86.93
2023-04-12T18:52:40.157Z,90.47
2023-04-12T18:54:41.633Z,104.47
2023-04-12T18:56:43.120Z,117.82
2023-04-12T18:58:54.537Z,168.95
2023-04-12T19:00:57.433Z,167.50
2023-04-12T19:02:59.397Z,146.80
2023-04-12T19:05:00.864Z,58.47
2023-04-12T19:07:02.983Z,89.13
2023-04-12T19:09:05.711Z,64.22
2023-04-12T19:11:07.582Z,78.53
2023-04-12T19:13:09.060Z,89.13
2023-04-12T19:15:11.248Z,99.70
2023-04-12T19:17:12.706Z,85.80
2023-04-12T19:19:14.184Z,73.32
2023-04-12T19:21:15.702Z,61.00
2023-04-12T19:23:17.116Z,45.05
2023-04-12T19:25:19.817Z,59.22
2023-04-12T19:27:21.843Z,49.03
2023-04-12T19:29:23.241Z,64.00
2023-04-12T19:31:25.201Z,70.45
2023-04-12T19:33:26.736Z,72.40
2023-04-12T19:35:28.210Z,71.05
2023-04-12T19:37:29.765Z,52.35
2023-04-12T19:39:31.609Z,52.38
2023-04-12T19:41:33.045Z,46.28
2023-04-12T19:43:34.548Z,34.70
2023-04-12T19:45:36.122Z,32.83
2023-04-12T19:47:37.591Z,46.38
2023-04-12T19:49:39.100Z,49.75
2023-04-12T19:51:40.589Z,47.35
2023-04-12T19:53:42.302Z,41.15
2023-04-12T19:55:44.986Z,110.97
2023-04-12T19:57:46.366Z,138.05
2023-04-12T19:59:48.214Z,152.02
2023-04-12T20:01:49.896Z,177.65
2023-04-12T20:03:51.324Z,199.63
2023-04-12T20:05:53.097Z,115.03
2023-04-12T20:07:54.708Z,88.38
2023-04-12T20:09:56.093Z,101.95
2023-04-12T20:11:57.585Z,109.60
2023-04-12T20:13:59.181Z,95.75
2023-04-12T20:16:00.570Z,91.43
2023-04-12T20:18:02.231Z,97.35
2023-04-12T20:20:04.381Z,95.40
2023-04-12T20:22:05.801Z,88.15
2023-04-12T20:24:07.529Z,89.50
2023-04-12T20:26:09.338Z,107.43
2023-04-12T20:28:10.739Z,119.13
2023-04-12T20:30:13.009Z,147.75
2023-04-12T20:32:14.810Z,128.02
2023-04-12T20:34:16.215Z,98.43
2023-04-12T20:36:17.947Z,113.90
2023-04-12T20:38:19.837Z,104.93
2023-04-12T20:40:21.274Z,97.25
2023-04-12T20:42:23.488Z,92.53
2023-04-12T20:44:25.222Z,68.72
2023-04-12T20:46:26.725Z,73.78
2023-04-12T20:48:28.501Z,82.20
2023-04-12T20:50:30.247Z,81.68
2023-04-12T20:52:31.706Z,76.18
2023-04-12T20:54:33.269Z,71.53
2023-04-12T20:56:35.024Z,69.40
2023-04-12T20:58:36.415Z,60.70
2023-04-12T21:00:38.524Z,69.38
2023-04-12T21:02:40.091Z,65.43
2023-04-12T21:04:41.829Z,62.55
2023-04-12T21:06:43.746Z,95.75
2023-04-12T21:08:45.336Z,109.28
2023-04-12T21:10:46.755Z,97.90
2023-04-12T21:12:48.223Z,78.45
2023-04-12T21:14:49.636Z,91.25
2023-04-12T21:16:51.050Z,82.55
2023-04-12T21:18:52.570Z,89.45
2023-04-12T21:20:58.028Z,62.72
2023-04-12T21:22:59.617Z,70.88
2023-04-12T21:25:01.032Z,62.72
2023-04-12T21:27:02.578Z,58.58
2023-04-12T21:29:03.969Z,61.53
2023-04-12T21:31:05.689Z,62.80
2023-04-12T21:33:07.928Z,58.28
2023-04-12T21:35:09.698Z,54.55
2023-04-12T21:37:11.209Z,55.10
2023-04-12T21:39:12.692Z,57.60
2023-04-12T21:41:14.137Z,64.57
2023-04-12T21:43:16.147Z,76.07
2023-04-12T21:45:17.672Z,90.32
2023-04-12T21:47:19.164Z,71.30
2023-04-12T21:49:20.662Z,74.13
2023-04-12T21:51:22.253Z,60.05
2023-04-12T21:53:23.650Z,65.60
2023-04-12T21:55:27.108Z,62.95
2023-04-12T21:57:32.551Z,61.30
2023-04-12T21:59:33.944Z,62.03
2023-04-12T22:01:35.445Z,67.47
2023-04-12T22:03:36.999Z,95.75
2023-04-12T22:05:38.461Z,93.82
2023-04-12T22:07:39.959Z,70.30
2023-04-12T22:09:41.518Z,70.20
2023-04-12T22:11:42.960Z,72.47
2023-04-12T22:13:44.361Z,75.47
2023-04-12T22:15:45.732Z,56.38
2023-04-12T22:17:47.190Z,48.67
2023-04-12T22:19:48.791Z,40.92
2023-04-12T22:21:50.281Z,40.88
2023-04-12T22:23:53.891Z,37.45
2023-04-12T22:27:56.782Z,43.10
2023-04-12T22:29:58.228Z,37.95
2023-04-12T22:32:00.150Z,39.83
2023-04-12T22:34:01.591Z,40.53
2023-04-12T22:36:03.135Z,45.33
2023-04-12T22:38:04.734Z,43.17
2023-04-12T22:40:07.274Z,43.45
2023-04-12T22:42:08.729Z,50.33
2023-04-12T22:44:10.247Z,42.97
2023-04-12T22:46:11.790Z,48.90
2023-04-12T22:48:14.012Z,45.58
2023-04-12T22:50:15.687Z,51.60
2023-04-12T22:52:17.661Z,43.80
2023-04-12T22:54:19.059Z,48.50
2023-04-12T22:56:20.671Z,50.47
2023-04-12T22:58:22.593Z,57.15
2023-04-12T23:00:24.112Z,61.78
2023-04-12T23:02:25.644Z,60.08
2023-04-12T23:04:27.190Z,62.78
2023-04-12T23:06:28.702Z,119.50
2023-04-12T23:08:30.438Z,267.65
2023-04-12T23:10:31.899Z,667.30
2023-04-12T23:12:33.338Z,831.03
2023-04-12T23:14:34.826Z,844.88
2023-04-12T23:16:40.478Z,551.55
2023-04-12T23:18:41.867Z,214.15
2023-04-12T23:20:43.486Z,315.77
2023-04-12T23:22:55.940Z,166.13
2023-04-12T23:25:02.201Z,160.23
2023-04-12T23:27:03.845Z,154.27
2023-04-12T23:29:05.435Z,170.27
2023-04-12T23:31:08.013Z,199.55
2023-04-12T23:33:09.964Z,105.85
2023-04-12T23:35:11.393Z,81.93
2023-04-12T23:37:12.825Z,67.25
2023-04-12T23:39:14.480Z,54.08
2023-04-12T23:41:15.966Z,50.95
2023-04-12T23:43:17.385Z,49.58
2023-04-12T23:45:19.097Z,52.67
2023-04-12T23:47:20.610Z,54.53
2023-04-12T23:49:21.996Z,50.83
2023-04-12T23:51:23.687Z,50.28
2023-04-12T23:53:25.370Z,52.47
2023-04-12T23:55:26.789Z,49.10
2023-04-12T23:57:28.299Z,52.42
2023-04-12T23:59:29.775Z,50.95
